sensor_id;sensor_type;location;lat;lon;timestamp;P1;durP1;ratioP1;P2;durP2;ratioP2
27925;SDS011;15267;47.838;12.128;2023-03-01T00:01:22;36.38;;;27.33;;
27925;SDS011;15267;47.838;12.128;2023-03-01T00:03:48;36.47;;;28.85;;
27925;SDS011;15267;47.838;12.128;2023-03-01T00:06:14;39.08;;;28.83;;
27925;SDS011;15267;47.838;12.128;2023-03-01T00:08:41;41.50;;;30.20;;
27925;SDS011;15267;47.838;12.128;2023-03-01T00:11:11;39.40;;;30.10;;
27925;SDS011;15267;47.838;12.128;2023-03-01T00:13:38;42.55;;;30.52;;
27925;SDS011;15267;47.838;12.128;2023-03-01T00:16:05;42.40;;;30.95;;
27925;SDS011;15267;47.838;12.128;2023-03-01T00:18:31;41.42;;;30.45;;
27925;SDS011;15267;47.838;12.128;2023-03-01T00:20:57;42.45;;;31.33;;
27925;SDS011;15267;47.838;12.128;2023-03-01T00:23:24;47.17;;;32.63;;
27925;SDS011;15267;47.838;12.128;2023-03-01T00:25:50;39.30;;;30.20;;
27925;SDS011;15267;47.838;12.128;2023-03-01T00:28:16;43.22;;;31.27;;
27925;SDS011;15267;47.838;12.128;2023-03-01T00:30:43;44.38;;;31.10;;
27925;SDS011;15267;47.838;12.128;2023-03-01T00:33:09;45.30;;;32.10;;
27925;SDS011;15267;47.838;12.128;2023-03-01T00:35:35;44.33;;;31.85;;
27925;SDS011;15267;47.838;12.128;2023-03-01T00:38:01;45.25;;;31.95;;
27925;SDS011;15267;47.838;12.128;2023-03-01T00:40:27;45.10;;;31.27;;
27925;SDS011;15267;47.838;12.128;2023-03-01T00:42:54;41.03;;;31.40;;
27925;SDS011;15267;47.838;12.128;2023-03-01T00:45:20;45.90;;;33.97;;
27925;SDS011;15267;47.838;12.128;2023-03-01T00:47:46;46.50;;;34.15;;
27925;SDS011;15267;47.838;12.128;2023-03-01T00:50:13;43.38;;;32.63;;
27925;SDS011;15267;47.838;12.128;2023-03-01T00:52:39;42.22;;;32.83;;
27925;SDS011;15267;47.838;12.128;2023-03-01T00:55:05;48.30;;;33.30;;
27925;SDS011;15267;47.838;12.128;2023-03-01T00:57:31;49.38;;;34.92;;
27925;SDS011;15267;47.838;12.128;2023-03-01T00:59:58;43.97;;;32.55;;
27925;SDS011;15267;47.838;12.128;2023-03-01T01:02:24;43.83;;;33.88;;
27925;SDS011;15267;47.838;12.128;2023-03-01T01:04:50;43.40;;;33.10;;
27925;SDS011;15267;47.838;12.128;2023-03-01T01:07:16;45.42;;;33.35;;
27925;SDS011;15267;47.838;12.128;2023-03-01T01:09:42;46.72;;;34.22;;
27925;SDS011;15267;47.838;12.128;2023-03-01T01:12:08;43.80;;;32.60;;
27925;SDS011;15267;47.838;12.128;2023-03-01T01:14:34;47.30;;;34.17;;
27925;SDS011;15267;47.838;12.128;2023-03-01T01:17:00;46.50;;;34.35;;
27925;SDS011;15267;47.838;12.128;2023-03-01T01:19:26;45.67;;;33.88;;
27925;SDS011;15267;47.838;12.128;2023-03-01T01:21:52;45.28;;;33.85;;
27925;SDS011;15267;47.838;12.128;2023-03-01T01:24:18;43.25;;;33.47;;
27925;SDS011;15267;47.838;12.128;2023-03-01T01:26:44;46.40;;;34.17;;
27925;SDS011;15267;47.838;12.128;2023-03-01T01:29:11;55.17;;;37.80;;
27925;SDS011;15267;47.838;12.128;2023-03-01T01:31:37;55.90;;;36.72;;
27925;SDS011;15267;47.838;12.128;2023-03-01T01:34:04;47.08;;;34.40;;
27925;SDS011;15267;47.838;12.128;2023-03-01T01:36:31;46.35;;;33.88;;
27925;SDS011;15267;47.838;12.128;2023-03-01T01:38:57;45.33;;;32.80;;
27925;SDS011;15267;47.838;12.128;2023-03-01T01:41:23;41.30;;;30.50;;
27925;SDS011;15267;47.838;12.128;2023-03-01T01:44:09;45.42;;;30.92;;
27925;SDS011;15267;47.838;12.128;2023-03-01T01:46:36;37.40;;;29.40;;
27925;SDS011;15267;47.838;12.128;2023-03-01T01:49:04;40.17;;;28.02;;
27925;SDS011;15267;47.838;12.128;2023-03-01T01:51:36;39.42;;;28.75;;
27925;SDS011;15267;47.838;12.128;2023-03-01T01:54:12;37.58;;;27.63;;
27925;SDS011;15267;47.838;12.128;2023-03-01T01:56:40;38.13;;;27.55;;
27925;SDS011;15267;47.838;12.128;2023-03-01T01:59:07;33.53;;;25.52;;
27925;SDS011;15267;47.838;12.128;2023-03-01T02:01:34;29.58;;;23.33;;
27925;SDS011;15267;47.838;12.128;2023-03-01T02:04:00;34.05;;;24.85;;
27925;SDS011;15267;47.838;12.128;2023-03-01T02:06:31;31.85;;;24.15;;
27925;SDS011;15267;47.838;12.128;2023-03-01T02:08:59;31.20;;;23.73;;
27925;SDS011;15267;47.838;12.128;2023-03-01T02:11:25;32.70;;;24.15;;
27925;SDS011;15267;47.838;12.128;2023-03-01T02:13:53;31.33;;;22.33;;
27925;SDS011;15267;47.838;12.128;2023-03-01T02:16:19;28.67;;;22.20;;
27925;SDS011;15267;47.838;12.128;2023-03-01T02:18:46;30.15;;;22.15;;
27925;SDS011;15267;47.838;12.128;2023-03-01T02:23:47;28.63;;;22.15;;
27925;SDS011;15267;47.838;12.128;2023-03-01T02:26:20;31.05;;;22.73;;
27925;SDS011;15267;47.838;12.128;2023-03-01T02:28:49;29.00;;;20.85;;
27925;SDS011;15267;47.838;12.128;2023-03-01T02:31:16;27.50;;;20.85;;
27925;SDS011;15267;47.838;12.128;2023-03-01T02:34:02;29.30;;;21.83;;
27925;SDS011;15267;47.838;12.128;2023-03-01T02:36:33;27.85;;;21.63;;
27925;SDS011;15267;47.838;12.128;2023-03-01T02:39:00;27.05;;;20.63;;
27925;SDS011;15267;47.838;12.128;2023-03-01T02:41:28;26.58;;;19.98;;
27925;SDS011;15267;47.838;12.128;2023-03-01T02:43:54;25.80;;;20.50;;
27925;SDS011;15267;47.838;12.128;2023-03-01T02:46:22;26.60;;;19.65;;
27925;SDS011;15267;47.838;12.128;2023-03-01T02:48:50;28.95;;;21.63;;
27925;SDS011;15267;47.838;12.128;2023-03-01T02:56:17;30.30;;;21.55;;
27925;SDS011;15267;47.838;12.128;2023-03-01T02:58:43;32.20;;;22.58;;
27925;SDS011;15267;47.838;12.128;2023-03-01T03:01:16;28.10;;;21.80;;
27925;SDS011;15267;47.838;12.128;2023-03-01T03:03:42;29.00;;;21.73;;
27925;SDS011;15267;47.838;12.128;2023-03-01T03:06:08;29.67;;;22.95;;
27925;SDS011;15267;47.838;12.128;2023-03-01T03:08:34;28.17;;;21.00;;
27925;SDS011;15267;47.838;12.128;2023-03-01T03:11:00;27.90;;;21.35;;
27925;SDS011;15267;47.838;12.128;2023-03-01T03:13:26;28.40;;;21.45;;
27925;SDS011;15267;47.838;12.128;2023-03-01T03:15:53;26.52;;;20.67;;
27925;SDS011;15267;47.838;12.128;2023-03-01T03:18:20;28.45;;;22.13;;
27925;SDS011;15267;47.838;12.128;2023-03-01T03:20:46;30.17;;;21.38;;
27925;SDS011;15267;47.838;12.128;2023-03-01T03:23:12;29.55;;;23.10;;
27925;SDS011;15267;47.838;12.128;2023-03-01T03:25:38;29.85;;;21.30;;
27925;SDS011;15267;47.838;12.128;2023-03-01T03:28:05;28.55;;;21.27;;
27925;SDS011;15267;47.838;12.128;2023-03-01T03:30:35;28.30;;;21.30;;
27925;SDS011;15267;47.838;12.128;2023-03-01T03:33:01;28.60;;;21.50;;
27925;SDS011;15267;47.838;12.128;2023-03-01T03:35:28;29.42;;;19.88;;
27925;SDS011;15267;47.838;12.128;2023-03-01T03:38:01;27.95;;;21.30;;
27925;SDS011;15267;47.838;12.128;2023-03-01T03:40:37;29.58;;;22.05;;
27925;SDS011;15267;47.838;12.128;2023-03-01T03:43:03;29.38;;;20.25;;
27925;SDS011;15267;47.838;12.128;2023-03-01T03:45:30;31.10;;;21.33;;
27925;SDS011;15267;47.838;12.128;2023-03-01T03:47:58;27.65;;;20.52;;
27925;SDS011;15267;47.838;12.128;2023-03-01T03:50:24;25.38;;;19.83;;
27925;SDS011;15267;47.838;12.128;2023-03-01T03:52:50;28.80;;;21.02;;
27925;SDS011;15267;47.838;12.128;2023-03-01T03:55:16;29.90;;;22.15;;
27925;SDS011;15267;47.838;12.128;2023-03-01T03:57:44;29.85;;;21.65;;
27925;SDS011;15267;47.838;12.128;2023-03-01T04:00:16;31.38;;;22.75;;
27925;SDS011;15267;47.838;12.128;2023-03-01T04:02:43;28.75;;;22.63;;
27925;SDS011;15267;47.838;12.128;2023-03-01T04:05:09;27.17;;;20.42;;
27925;SDS011;15267;47.838;12.128;2023-03-01T04:07:36;29.77;;;21.35;;
27925;SDS011;15267;47.838;12.128;2023-03-01T04:10:03;30.50;;;23.17;;
27925;SDS011;15267;47.838;12.128;2023-03-01T04:12:29;30.58;;;22.25;;
27925;SDS011;15267;47.838;12.128;2023-03-01T04:14:55;30.33;;;22.02;;
27925;SDS011;15267;47.838;12.128;2023-03-01T04:17:21;31.25;;;22.52;;
27925;SDS011;15267;47.838;12.128;2023-03-01T04:19:47;30.35;;;21.05;;
27925;SDS011;15267;47.838;12.128;2023-03-01T04:22:14;27.75;;;21.25;;
27925;SDS011;15267;47.838;12.128;2023-03-01T04:24:43;30.25;;;21.02;;
27925;SDS011;15267;47.838;12.128;2023-03-01T04:27:09;29.75;;;21.70;;
27925;SDS011;15267;47.838;12.128;2023-03-01T04:29:35;30.52;;;23.08;;
27925;SDS011;15267;47.838;12.128;2023-03-01T04:32:01;30.92;;;23.95;;
27925;SDS011;15267;47.838;12.128;2023-03-01T04:34:27;28.55;;;21.65;;
27925;SDS011;15267;47.838;12.128;2023-03-01T04:36:53;30.60;;;22.02;;
27925;SDS011;15267;47.838;12.128;2023-03-01T04:39:19;29.40;;;22.52;;
27925;SDS011;15267;47.838;12.128;2023-03-01T04:41:45;32.35;;;23.38;;
27925;SDS011;15267;47.838;12.128;2023-03-01T04:44:12;32.75;;;23.40;;
27925;SDS011;15267;47.838;12.128;2023-03-01T04:46:38;31.25;;;23.63;;
27925;SDS011;15267;47.838;12.128;2023-03-01T04:49:04;32.05;;;22.48;;
27925;SDS011;15267;47.838;12.128;2023-03-01T04:51:30;31.33;;;21.52;;
27925;SDS011;15267;47.838;12.128;2023-03-01T04:53:59;30.42;;;22.55;;
27925;SDS011;15267;47.838;12.128;2023-03-01T04:56:25;32.42;;;23.13;;
27925;SDS011;15267;47.838;12.128;2023-03-01T04:58:52;30.67;;;22.52;;
27925;SDS011;15267;47.838;12.128;2023-03-01T05:01:19;30.70;;;23.33;;
27925;SDS011;15267;47.838;12.128;2023-03-01T05:03:49;33.47;;;22.48;;
27925;SDS011;15267;47.838;12.128;2023-03-01T05:06:16;29.98;;;22.15;;
27925;SDS011;15267;47.838;12.128;2023-03-01T05:08:43;29.33;;;22.23;;
27925;SDS011;15267;47.838;12.128;2023-03-01T05:11:09;35.47;;;23.40;;
27925;SDS011;15267;47.838;12.128;2023-03-01T05:13:36;31.55;;;22.92;;
27925;SDS011;15267;47.838;12.128;2023-03-01T05:16:03;33.45;;;22.70;;
27925;SDS011;15267;47.838;12.128;2023-03-01T05:18:30;34.08;;;25.15;;
27925;SDS011;15267;47.838;12.128;2023-03-01T05:21:00;31.20;;;22.50;;
27925;SDS011;15267;47.838;12.128;2023-03-01T05:23:28;34.33;;;25.52;;
27925;SDS011;15267;47.838;12.128;2023-03-01T05:25:57;42.35;;;34.42;;
27925;SDS011;15267;47.838;12.128;2023-03-01T05:28:23;36.72;;;27.40;;
27925;SDS011;15267;47.838;12.128;2023-03-01T05:30:49;32.78;;;24.52;;
27925;SDS011;15267;47.838;12.128;2023-03-01T05:33:16;30.25;;;23.02;;
27925;SDS011;15267;47.838;12.128;2023-03-01T05:35:42;36.22;;;25.90;;
27925;SDS011;15267;47.838;12.128;2023-03-01T05:38:10;32.17;;;23.73;;
27925;SDS011;15267;47.838;12.128;2023-03-01T05:40:38;32.88;;;23.92;;
27925;SDS011;15267;47.838;12.128;2023-03-01T05:43:04;32.90;;;25.23;;
27925;SDS011;15267;47.838;12.128;2023-03-01T05:45:30;35.40;;;24.25;;
27925;SDS011;15267;47.838;12.128;2023-03-01T05:47:57;37.28;;;26.20;;
27925;SDS011;15267;47.838;12.128;2023-03-01T05:50:24;32.22;;;24.75;;
27925;SDS011;15267;47.838;12.128;2023-03-01T05:52:52;33.22;;;23.25;;
27925;SDS011;15267;47.838;12.128;2023-03-01T05:55:19;33.40;;;24.30;;
27925;SDS011;15267;47.838;12.128;2023-03-01T05:57:45;33.47;;;23.95;;
27925;SDS011;15267;47.838;12.128;2023-03-01T06:00:12;33.47;;;23.58;;
27925;SDS011;15267;47.838;12.128;2023-03-01T06:02:38;34.80;;;23.67;;
27925;SDS011;15267;47.838;12.128;2023-03-01T06:05:05;32.50;;;23.67;;
27925;SDS011;15267;47.838;12.128;2023-03-01T06:07:34;38.38;;;25.52;;
27925;SDS011;15267;47.838;12.128;2023-03-01T06:10:01;34.25;;;23.35;;
27925;SDS011;15267;47.838;12.128;2023-03-01T06:12:29;29.58;;;22.33;;
27925;SDS011;15267;47.838;12.128;2023-03-01T06:14:55;29.85;;;21.60;;
27925;SDS011;15267;47.838;12.128;2023-03-01T06:17:21;36.33;;;25.70;;
27925;SDS011;15267;47.838;12.128;2023-03-01T06:19:47;37.13;;;23.80;;
27925;SDS011;15267;47.838;12.128;2023-03-01T06:22:13;33.47;;;23.15;;
27925;SDS011;15267;47.838;12.128;2023-03-01T06:24:39;35.72;;;24.75;;
27925;SDS011;15267;47.838;12.128;2023-03-01T06:27:05;35.00;;;25.02;;
27925;SDS011;15267;47.838;12.128;2023-03-01T06:29:31;33.47;;;24.40;;
27925;SDS011;15267;47.838;12.128;2023-03-01T06:31:57;32.05;;;24.35;;
27925;SDS011;15267;47.838;12.128;2023-03-01T06:34:23;36.85;;;26.63;;
27925;SDS011;15267;47.838;12.128;2023-03-01T06:36:49;34.42;;;27.35;;
27925;SDS011;15267;47.838;12.128;2023-03-01T06:39:15;32.80;;;25.85;;
27925;SDS011;15267;47.838;12.128;2023-03-01T06:41:42;36.65;;;26.50;;
27925;SDS011;15267;47.838;12.128;2023-03-01T06:44:08;34.92;;;25.88;;
27925;SDS011;15267;47.838;12.128;2023-03-01T06:46:34;35.45;;;24.80;;
27925;SDS011;15267;47.838;12.128;2023-03-01T06:49:00;35.15;;;26.58;;
27925;SDS011;15267;47.838;12.128;2023-03-01T06:51:26;32.30;;;24.83;;
27925;SDS011;15267;47.838;12.128;2023-03-01T06:53:52;37.05;;;24.98;;
27925;SDS011;15267;47.838;12.128;2023-03-01T06:56:18;35.10;;;25.42;;
27925;SDS011;15267;47.838;12.128;2023-03-01T06:58:44;35.72;;;25.75;;
27925;SDS011;15267;47.838;12.128;2023-03-01T07:01:10;38.85;;;27.63;;
27925;SDS011;15267;47.838;12.128;2023-03-01T07:03:35;34.88;;;25.58;;
27925;SDS011;15267;47.838;12.128;2023-03-01T07:06:01;39.65;;;27.08;;
27925;SDS011;15267;47.838;12.128;2023-03-01T07:08:27;34.22;;;24.77;;
27925;SDS011;15267;47.838;12.128;2023-03-01T07:10:57;37.22;;;26.48;;
27925;SDS011;15267;47.838;12.128;2023-03-01T07:13:23;36.33;;;25.73;;
27925;SDS011;15267;47.838;12.128;2023-03-01T07:15:49;32.80;;;24.55;;
27925;SDS011;15267;47.838;12.128;2023-03-01T07:18:15;38.22;;;25.60;;
27925;SDS011;15267;47.838;12.128;2023-03-01T07:20:41;41.15;;;29.98;;
27925;SDS011;15267;47.838;12.128;2023-03-01T07:23:07;35.97;;;25.58;;
27925;SDS011;15267;47.838;12.128;2023-03-01T07:25:33;35.20;;;25.48;;
27925;SDS011;15267;47.838;12.128;2023-03-01T07:27:59;36.03;;;25.38;;
27925;SDS011;15267;47.838;12.128;2023-03-01T07:30:25;35.25;;;26.92;;
27925;SDS011;15267;47.838;12.128;2023-03-01T07:32:53;36.45;;;26.05;;
27925;SDS011;15267;47.838;12.128;2023-03-01T07:35:19;37.47;;;28.20;;
27925;SDS011;15267;47.838;12.128;2023-03-01T07:37:45;34.53;;;25.15;;
27925;SDS011;15267;47.838;12.128;2023-03-01T07:40:11;31.63;;;24.95;;
27925;SDS011;15267;47.838;12.128;2023-03-01T07:42:37;32.78;;;24.77;;
27925;SDS011;15267;47.838;12.128;2023-03-01T07:45:04;39.72;;;27.35;;
27925;SDS011;15267;47.838;12.128;2023-03-01T07:47:33;34.17;;;24.52;;
27925;SDS011;15267;47.838;12.128;2023-03-01T07:50:03;39.08;;;27.83;;
27925;SDS011;15267;47.838;12.128;2023-03-01T07:52:30;38.83;;;28.40;;
27925;SDS011;15267;47.838;12.128;2023-03-01T07:54:56;39.50;;;28.02;;
27925;SDS011;15267;47.838;12.128;2023-03-01T07:57:22;35.63;;;24.63;;
27925;SDS011;15267;47.838;12.128;2023-03-01T07:59:48;38.58;;;26.30;;
27925;SDS011;15267;47.838;12.128;2023-03-01T08:02:14;35.75;;;26.13;;
27925;SDS011;15267;47.838;12.128;2023-03-01T08:04:41;33.47;;;25.13;;
27925;SDS011;15267;47.838;12.128;2023-03-01T08:07:07;36.63;;;25.80;;
27925;SDS011;15267;47.838;12.128;2023-03-01T08:09:36;41.40;;;27.00;;
27925;SDS011;15267;47.838;12.128;2023-03-01T08:12:02;37.03;;;25.60;;
27925;SDS011;15267;47.838;12.128;2023-03-01T08:14:29;40.50;;;29.02;;
27925;SDS011;15267;47.838;12.128;2023-03-01T08:16:55;35.03;;;25.75;;
27925;SDS011;15267;47.838;12.128;2023-03-01T08:19:21;37.20;;;26.70;;
27925;SDS011;15267;47.838;12.128;2023-03-01T08:21:47;36.97;;;26.92;;
27925;SDS011;15267;47.838;12.128;2023-03-01T08:24:13;37.63;;;25.50;;
27925;SDS011;15267;47.838;12.128;2023-03-01T08:26:39;39.38;;;28.52;;
27925;SDS011;15267;47.838;12.128;2023-03-01T08:29:05;36.30;;;25.85;;
27925;SDS011;15267;47.838;12.128;2023-03-01T08:31:32;36.80;;;26.27;;
27925;SDS011;15267;47.838;12.128;2023-03-01T08:34:01;40.38;;;27.70;;
27925;SDS011;15267;47.838;12.128;2023-03-01T08:36:28;42.40;;;27.67;;
27925;SDS011;15267;47.838;12.128;2023-03-01T08:38:54;37.45;;;26.88;;
27925;SDS011;15267;47.838;12.128;2023-03-01T08:41:20;36.50;;;26.17;;
27925;SDS011;15267;47.838;12.128;2023-03-01T08:43:46;34.20;;;25.33;;
27925;SDS011;15267;47.838;12.128;2023-03-01T08:46:12;40.80;;;27.65;;
27925;SDS011;15267;47.838;12.128;2023-03-01T08:48:38;35.75;;;25.58;;
27925;SDS011;15267;47.838;12.128;2023-03-01T08:51:11;37.20;;;24.70;;
27925;SDS011;15267;47.838;12.128;2023-03-01T08:53:38;31.77;;;24.55;;
27925;SDS011;15267;47.838;12.128;2023-03-01T08:56:04;37.55;;;26.55;;
27925;SDS011;15267;47.838;12.128;2023-03-01T08:58:30;39.28;;;26.08;;
27925;SDS011;15267;47.838;12.128;2023-03-01T09:00:56;37.70;;;28.60;;
27925;SDS011;15267;47.838;12.128;2023-03-01T09:03:22;40.15;;;28.55;;
27925;SDS011;15267;47.838;12.128;2023-03-01T09:05:48;41.88;;;28.17;;
27925;SDS011;15267;47.838;12.128;2023-03-01T09:08:15;37.35;;;27.25;;
27925;SDS011;15267;47.838;12.128;2023-03-01T09:10:41;35.95;;;27.23;;
27925;SDS011;15267;47.838;12.128;2023-03-01T09:13:07;36.10;;;26.88;;
27925;SDS011;15267;47.838;12.128;2023-03-01T09:15:33;41.42;;;29.35;;
27925;SDS011;15267;47.838;12.128;2023-03-01T09:17:59;37.13;;;26.83;;
27925;SDS011;15267;47.838;12.128;2023-03-01T09:20:25;42.10;;;30.17;;
27925;SDS011;15267;47.838;12.128;2023-03-01T09:22:51;52.63;;;34.35;;
27925;SDS011;15267;47.838;12.128;2023-03-01T09:25:17;54.33;;;35.05;;
27925;SDS011;15267;47.838;12.128;2023-03-01T09:27:43;63.40;;;41.85;;
27925;SDS011;15267;47.838;12.128;2023-03-01T09:30:09;62.80;;;43.13;;
27925;SDS011;15267;47.838;12.128;2023-03-01T09:32:35;39.20;;;28.05;;
27925;SDS011;15267;47.838;12.128;2023-03-01T09:35:01;35.17;;;26.33;;
27925;SDS011;15267;47.838;12.128;2023-03-01T09:37:29;35.17;;;27.15;;
27925;SDS011;15267;47.838;12.128;2023-03-01T09:39:55;36.17;;;27.45;;
27925;SDS011;15267;47.838;12.128;2023-03-01T09:42:21;33.90;;;25.02;;
27925;SDS011;15267;47.838;12.128;2023-03-01T09:47:18;37.83;;;27.40;;
27925;SDS011;15267;47.838;12.128;2023-03-01T09:49:45;36.80;;;28.40;;
27925;SDS011;15267;47.838;12.128;2023-03-01T09:54:53;42.05;;;29.02;;
27925;SDS011;15267;47.838;12.128;2023-03-01T09:57:26;38.22;;;27.65;;
27925;SDS011;15267;47.838;12.128;2023-03-01T10:00:15;40.55;;;29.80;;
27925;SDS011;15267;47.838;12.128;2023-03-01T10:02:51;42.10;;;29.45;;
27925;SDS011;15267;47.838;12.128;2023-03-01T10:08:06;38.67;;;28.10;;
27925;SDS011;15267;47.838;12.128;2023-03-01T10:10:43;36.92;;;25.45;;
27925;SDS011;15267;47.838;12.128;2023-03-01T10:13:24;38.42;;;27.65;;
27925;SDS011;15267;47.838;12.128;2023-03-01T10:15:53;40.10;;;29.48;;
27925;SDS011;15267;47.838;12.128;2023-03-01T10:18:21;39.08;;;27.85;;
27925;SDS011;15267;47.838;12.128;2023-03-01T10:20:53;34.35;;;25.77;;
27925;SDS011;15267;47.838;12.128;2023-03-01T10:23:20;37.88;;;27.67;;
27925;SDS011;15267;47.838;12.128;2023-03-01T10:31:17;37.17;;;26.15;;
27925;SDS011;15267;47.838;12.128;2023-03-01T10:33:43;38.03;;;28.30;;
27925;SDS011;15267;47.838;12.128;2023-03-01T10:36:09;37.28;;;26.98;;
27925;SDS011;15267;47.838;12.128;2023-03-01T10:38:52;34.53;;;26.77;;
27925;SDS011;15267;47.838;12.128;2023-03-01T10:41:18;36.33;;;26.30;;
27925;SDS011;15267;47.838;12.128;2023-03-01T10:43:49;36.67;;;27.00;;
27925;SDS011;15267;47.838;12.128;2023-03-01T10:49:07;33.92;;;25.67;;
27925;SDS011;15267;47.838;12.128;2023-03-01T10:51:38;36.47;;;26.40;;
27925;SDS011;15267;47.838;12.128;2023-03-01T10:54:05;39.33;;;26.40;;
27925;SDS011;15267;47.838;12.128;2023-03-01T10:56:49;34.97;;;27.48;;
27925;SDS011;15267;47.838;12.128;2023-03-01T10:59:20;36.40;;;25.65;;
27925;SDS011;15267;47.838;12.128;2023-03-01T11:04:35;36.55;;;26.98;;
27925;SDS011;15267;47.838;12.128;2023-03-01T11:07:01;33.70;;;25.38;;
27925;SDS011;15267;47.838;12.128;2023-03-01T11:09:30;34.92;;;25.50;;
27925;SDS011;15267;47.838;12.128;2023-03-01T11:12:02;34.85;;;26.02;;
27925;SDS011;15267;47.838;12.128;2023-03-01T11:14:31;35.67;;;26.35;;
27925;SDS011;15267;47.838;12.128;2023-03-01T11:19:25;34.05;;;24.77;;
27925;SDS011;15267;47.838;12.128;2023-03-01T11:24:31;34.95;;;24.98;;
27925;SDS011;15267;47.838;12.128;2023-03-01T11:26:59;31.95;;;24.33;;
27925;SDS011;15267;47.838;12.128;2023-03-01T11:29:30;34.35;;;25.90;;
27925;SDS011;15267;47.838;12.128;2023-03-01T11:31:59;36.33;;;25.23;;
27925;SDS011;15267;47.838;12.128;2023-03-01T11:34:38;31.95;;;24.45;;
27925;SDS011;15267;47.838;12.128;2023-03-01T11:37:09;33.20;;;24.10;;
27925;SDS011;15267;47.838;12.128;2023-03-01T11:39:38;33.03;;;24.63;;
27925;SDS011;15267;47.838;12.128;2023-03-01T11:42:06;31.75;;;23.80;;
27925;SDS011;15267;47.838;12.128;2023-03-01T11:44:35;33.63;;;25.88;;
27925;SDS011;15267;47.838;12.128;2023-03-01T11:47:07;34.28;;;24.67;;
27925;SDS011;15267;47.838;12.128;2023-03-01T11:49:45;35.35;;;25.80;;
27925;SDS011;15267;47.838;12.128;2023-03-01T11:59:52;33.53;;;24.75;;
27925;SDS011;15267;47.838;12.128;2023-03-01T12:02:27;34.67;;;24.60;;
27925;SDS011;15267;47.838;12.128;2023-03-01T12:07:31;31.17;;;23.35;;
27925;SDS011;15267;47.838;12.128;2023-03-01T12:12:57;30.83;;;23.55;;
27925;SDS011;15267;47.838;12.128;2023-03-01T12:36:40;26.80;;;20.60;;
27925;SDS011;15267;47.838;12.128;2023-03-01T12:39:21;29.10;;;22.13;;
27925;SDS011;15267;47.838;12.128;2023-03-01T12:41:55;30.45;;;22.92;;
27925;SDS011;15267;47.838;12.128;2023-03-01T12:47:03;32.63;;;23.73;;
27925;SDS011;15267;47.838;12.128;2023-03-01T12:49:37;30.88;;;22.33;;
27925;SDS011;15267;47.838;12.128;2023-03-01T12:52:47;31.33;;;24.60;;
27925;SDS011;15267;47.838;12.128;2023-03-01T12:54:53;30.20;;;23.13;;
27925;SDS011;15267;47.838;12.128;2023-03-01T12:57:29;31.63;;;24.88;;
27925;SDS011;15267;47.838;12.128;2023-03-01T13:00:09;26.98;;;21.85;;
27925;SDS011;15267;47.838;12.128;2023-03-01T13:02:51;25.65;;;20.15;;
27925;SDS011;15267;47.838;12.128;2023-03-01T13:08:15;25.38;;;19.98;;
27925;SDS011;15267;47.838;12.128;2023-03-01T13:10:43;24.48;;;20.08;;
27925;SDS011;15267;47.838;12.128;2023-03-01T13:13:12;28.35;;;22.35;;
27925;SDS011;15267;47.838;12.128;2023-03-01T13:15:40;26.60;;;21.52;;
27925;SDS011;15267;47.838;12.128;2023-03-01T13:31:00;26.05;;;19.23;;
27925;SDS011;15267;47.838;12.128;2023-03-01T13:35:52;26.10;;;18.92;;
27925;SDS011;15267;47.838;12.128;2023-03-01T13:41:06;24.92;;;19.92;;
27925;SDS011;15267;47.838;12.128;2023-03-01T13:43:34;25.50;;;19.80;;
27925;SDS011;15267;47.838;12.128;2023-03-01T13:46:01;25.67;;;20.33;;
27925;SDS011;15267;47.838;12.128;2023-03-01T13:48:29;27.90;;;20.38;;
27925;SDS011;15267;47.838;12.128;2023-03-01T13:50:57;27.15;;;20.17;;
27925;SDS011;15267;47.838;12.128;2023-03-01T13:53:26;25.42;;;19.88;;
27925;SDS011;15267;47.838;12.128;2023-03-01T13:55:57;26.67;;;20.33;;
27925;SDS011;15267;47.838;12.128;2023-03-01T13:58:25;28.02;;;20.33;;
27925;SDS011;15267;47.838;12.128;2023-03-01T14:00:59;26.05;;;21.58;;
27925;SDS011;15267;47.838;12.128;2023-03-01T14:03:25;27.98;;;21.23;;
27925;SDS011;15267;47.838;12.128;2023-03-01T14:08:27;28.25;;;22.10;;
27925;SDS011;15267;47.838;12.128;2023-03-01T14:10:58;26.63;;;21.13;;
27925;SDS011;15267;47.838;12.128;2023-03-01T14:13:38;27.38;;;21.65;;
27925;SDS011;15267;47.838;12.128;2023-03-01T14:16:11;25.05;;;20.88;;
27925;SDS011;15267;47.838;12.128;2023-03-01T14:18:42;25.15;;;20.05;;
27925;SDS011;15267;47.838;12.128;2023-03-01T14:21:12;27.25;;;21.42;;
27925;SDS011;15267;47.838;12.128;2023-03-01T14:23:39;24.60;;;20.58;;
27925;SDS011;15267;47.838;12.128;2023-03-01T14:26:07;28.83;;;22.50;;
27925;SDS011;15267;47.838;12.128;2023-03-01T14:28:34;26.45;;;20.95;;
27925;SDS011;15267;47.838;12.128;2023-03-01T14:31:02;25.30;;;20.63;;
27925;SDS011;15267;47.838;12.128;2023-03-01T14:33:32;26.17;;;20.40;;
27925;SDS011;15267;47.838;12.128;2023-03-01T14:38:41;28.73;;;21.75;;
27925;SDS011;15267;47.838;12.128;2023-03-01T14:41:08;26.77;;;21.58;;
27925;SDS011;15267;47.838;12.128;2023-03-01T14:43:35;33.03;;;24.45;;
27925;SDS011;15267;47.838;12.128;2023-03-01T14:46:02;27.00;;;21.73;;
27925;SDS011;15267;47.838;12.128;2023-03-01T14:48:28;39.25;;;29.63;;
27925;SDS011;15267;47.838;12.128;2023-03-01T14:50:54;33.75;;;25.20;;
27925;SDS011;15267;47.838;12.128;2023-03-01T14:53:21;29.85;;;22.83;;
27925;SDS011;15267;47.838;12.128;2023-03-01T14:55:50;29.65;;;22.83;;
27925;SDS011;15267;47.838;12.128;2023-03-01T14:58:19;34.60;;;25.27;;
27925;SDS011;15267;47.838;12.128;2023-03-01T15:01:07;42.85;;;29.35;;
27925;SDS011;15267;47.838;12.128;2023-03-01T15:03:37;27.45;;;22.48;;
27925;SDS011;15267;47.838;12.128;2023-03-01T15:06:04;31.13;;;23.98;;
27925;SDS011;15267;47.838;12.128;2023-03-01T15:08:31;25.48;;;21.70;;
27925;SDS011;15267;47.838;12.128;2023-03-01T15:13:41;26.67;;;20.60;;
27925;SDS011;15267;47.838;12.128;2023-03-01T15:16:11;25.20;;;21.13;;
27925;SDS011;15267;47.838;12.128;2023-03-01T15:18:37;28.30;;;22.95;;
27925;SDS011;15267;47.838;12.128;2023-03-01T15:21:14;25.95;;;21.73;;
27925;SDS011;15267;47.838;12.128;2023-03-01T15:23:41;30.90;;;24.67;;
27925;SDS011;15267;47.838;12.128;2023-03-01T15:26:17;33.95;;;25.80;;
27925;SDS011;15267;47.838;12.128;2023-03-01T15:28:49;27.85;;;22.60;;
27925;SDS011;15267;47.838;12.128;2023-03-01T15:33:44;35.58;;;27.98;;
27925;SDS011;15267;47.838;12.128;2023-03-01T15:36:31;30.75;;;25.83;;
27925;SDS011;15267;47.838;12.128;2023-03-01T15:38:58;32.78;;;25.38;;
27925;SDS011;15267;47.838;12.128;2023-03-01T15:41:26;28.15;;;23.23;;
27925;SDS011;15267;47.838;12.128;2023-03-01T15:43:53;27.17;;;22.30;;
27925;SDS011;15267;47.838;12.128;2023-03-01T15:48:47;28.60;;;21.88;;
27925;SDS011;15267;47.838;12.128;2023-03-01T15:51:14;30.77;;;23.38;;
27925;SDS011;15267;47.838;12.128;2023-03-01T15:53:41;27.92;;;23.45;;
27925;SDS011;15267;47.838;12.128;2023-03-01T15:56:07;28.45;;;23.33;;